createdAt,value
2022-12-19T00:03:07.237Z,100306.41
2022-12-19T00:06:16.271Z,100292.75
2022-12-19T00:09:22.738Z,100282.50
2022-12-19T00:12:28.204Z,100282.50
2022-12-19T00:15:37.270Z,100277.53
2022-12-19T00:18:43.268Z,100280.91
2022-12-19T00:21:52.337Z,100283.53
2022-12-19T00:24:59.912Z,100277.63
2022-12-19T00:28:10.312Z,100272.59
2022-12-19T00:31:16.928Z,100274.34
2022-12-19T00:34:23.565Z,100280.28
2022-12-19T00:37:31.561Z,100293.94
2022-12-19T00:40:38.849Z,100293.16
2022-12-19T00:43:47.525Z,100298.28
2022-12-19T00:46:53.935Z,100291.50
2022-12-19T00:49:59.700Z,100277.09
2022-12-19T00:53:08.615Z,100276.28
2022-12-19T00:56:18.450Z,100281.44
2022-12-19T00:59:26.667Z,100272.91
2022-12-19T01:02:35.167Z,100271.16
2022-12-19T01:05:42.136Z,100268.56
2022-12-19T01:08:51.486Z,100269.34
2022-12-19T01:12:12.040Z,100266.75
2022-12-19T01:15:23.105Z,100251.47
2022-12-19T01:18:30.124Z,100255.75
2022-12-19T01:21:39.866Z,100244.69
2022-12-19T01:24:48.834Z,100242.19
2022-12-19T01:27:57.670Z,100233.69
2022-12-19T01:31:04.025Z,100231.19
2022-12-19T01:34:11.949Z,100224.44
2022-12-19T01:37:19.573Z,100220.22
2022-12-19T01:40:27.763Z,100228.81
2022-12-19T01:43:56.780Z,100211.03
2022-12-19T01:47:03.998Z,100205.13
2022-12-19T01:50:21.864Z,100195.78
2022-12-19T01:53:49.198Z,100197.50
2022-12-19T01:57:02.861Z,100201.78
2022-12-19T02:00:12.742Z,100183.91
2022-12-19T02:03:29.672Z,100179.66
2022-12-19T02:06:38.330Z,100181.38
2022-12-19T02:09:47.573Z,100186.47
2022-12-19T02:13:02.827Z,100189.84
2022-12-19T02:16:30.158Z,100194.19
2022-12-19T02:20:27.819Z,100199.34
2022-12-19T02:24:36.495Z,100191.69
2022-12-19T02:28:27.116Z,100193.50
2022-12-19T02:31:46.596Z,100185.03
2022-12-19T02:35:07.404Z,100185.06
2022-12-19T02:38:27.929Z,100189.28
2022-12-19T02:41:46.058Z,100175.72
2022-12-19T02:45:02.176Z,100175.69
2022-12-19T02:48:17.628Z,100168.84
2022-12-19T02:51:25.735Z,100162.88
2022-12-19T02:54:31.601Z,100165.41
2022-12-19T02:58:13.608Z,100165.41
2022-12-19T03:01:45.889Z,100164.53
2022-12-19T03:05:13.178Z,100162.84
2022-12-19T03:08:31.622Z,100156.03
2022-12-19T03:11:44.892Z,100150.09
2022-12-19T03:14:54.369Z,100145.00
2022-12-19T03:18:03.587Z,100151.75
2022-12-19T03:21:23.812Z,100149.16
2022-12-19T03:24:30.593Z,100155.84
2022-12-19T03:27:42.466Z,100150.72
2022-12-19T03:30:52.118Z,100149.03
2022-12-19T03:34:09.225Z,100140.53
2022-12-19T03:37:25.321Z,100150.69
2022-12-19T03:40:36.047Z,100145.59
2022-12-19T03:43:44.306Z,100154.06
2022-12-19T03:47:03.053Z,100160.00
2022-12-19T03:50:12.373Z,100152.34
2022-12-19T03:53:42.076Z,100148.13
2022-12-19T03:56:59.295Z,100140.53
2022-12-19T04:00:13.561Z,100145.63
2022-12-19T04:03:22.159Z,100141.38
2022-12-19T04:06:34.694Z,100143.22
2022-12-19T04:09:50.418Z,100139.84
2022-12-19T04:13:08.751Z,100131.38
2022-12-19T04:16:26.642Z,100117.78
2022-12-19T04:19:43.953Z,100117.81
2022-12-19T04:23:01.526Z,100110.22
2022-12-19T04:26:13.846Z,100111.09
2022-12-19T04:29:23.280Z,100109.38
2022-12-19T04:32:32.817Z,100097.47
2022-12-19T04:35:38.975Z,100084.75
2022-12-19T04:38:45.715Z,100093.25
2022-12-19T04:41:54.319Z,100109.47
2022-12-19T04:45:01.198Z,100100.16
2022-12-19T04:48:08.017Z,100096.81
2022-12-19T04:51:15.243Z,100101.09
2022-12-19T04:54:20.967Z,100100.28
2022-12-19T04:57:32.311Z,100101.16
2022-12-19T05:00:37.946Z,100091.88
2022-12-19T05:03:52.693Z,100094.44
2022-12-19T05:07:00.462Z,100080.84
2022-12-19T05:10:08.963Z,100082.56
2022-12-19T05:13:16.992Z,100089.34
2022-12-19T05:16:23.448Z,100085.13
2022-12-19T05:19:29.320Z,100080.03
2022-12-19T05:22:38.189Z,100087.72
2022-12-19T05:25:43.846Z,100088.59
2022-12-19T05:28:53.365Z,100094.50
2022-12-19T05:31:58.881Z,100082.66
2022-12-19T05:35:05.517Z,100098.78
2022-12-19T05:38:11.160Z,100088.56
2022-12-19T05:41:20.233Z,100089.41
2022-12-19T05:44:28.946Z,100091.94
2022-12-19T05:47:35.253Z,100097.94
2022-12-19T05:50:41.269Z,100094.53
2022-12-19T05:53:51.042Z,100088.59
2022-12-19T05:56:56.627Z,100075.88
2022-12-19T06:00:09.421Z,100066.59
2022-12-19T06:03:17.911Z,100069.13
2022-12-19T06:06:27.486Z,100070.88
2022-12-19T06:09:33.159Z,100075.97
2022-12-19T06:12:39.593Z,100064.94
2022-12-19T06:15:47.678Z,100065.00
2022-12-19T06:18:54.154Z,100072.63
2022-12-19T06:21:59.702Z,100081.94
2022-12-19T06:25:06.079Z,100085.31
2022-12-19T06:28:11.557Z,100076.81
2022-12-19T06:31:24.897Z,100075.97
2022-12-19T06:35:02.204Z,100080.22
2022-12-19T06:38:00.892Z,100071.72
2022-12-19T06:41:20.194Z,100072.59
2022-12-19T06:44:26.574Z,100072.66
2022-12-19T06:47:34.786Z,100067.63
2022-12-19T06:50:41.102Z,100055.81
2022-12-19T06:53:46.617Z,100061.75
2022-12-19T06:56:53.002Z,100067.66
2022-12-19T06:59:58.672Z,100056.63
2022-12-19T07:03:16.341Z,100047.31
2022-12-19T07:06:21.865Z,100059.22
2022-12-19T07:09:31.483Z,100052.44
2022-12-19T07:12:37.042Z,100054.94
2022-12-19T07:15:44.230Z,100063.41
2022-12-19T07:18:52.411Z,100061.69
2022-12-19T07:22:00.273Z,100062.56
2022-12-19T07:25:09.298Z,100033.75
2022-12-19T07:28:17.125Z,100050.72
2022-12-19T07:32:17.699Z,100050.69
2022-12-19T07:35:29.406Z,100056.63
2022-12-19T07:38:37.323Z,100062.56
2022-12-19T07:41:43.546Z,100063.38
2022-12-19T07:44:48.927Z,100055.69
2022-12-19T07:47:55.249Z,100060.72
2022-12-19T07:51:08.675Z,100061.47
2022-12-19T07:54:15.422Z,100063.81
2022-12-19T07:57:20.953Z,100058.59
2022-12-19T08:00:27.491Z,100033.88
2022-12-19T08:03:36.436Z,100048.25
2022-12-19T08:06:46.144Z,100031.28
2022-12-19T08:09:51.720Z,100044.03
2022-12-19T08:12:58.085Z,100050.06
2022-12-19T08:16:03.927Z,100055.91
2022-12-19T08:19:10.262Z,100044.88
2022-12-19T08:22:18.451Z,100049.88
2022-12-19T08:25:24.878Z,100042.25
2022-12-19T08:28:30.563Z,100049.06
2022-12-19T08:31:36.913Z,100042.25
2022-12-19T08:34:43.692Z,100040.41
2022-12-19T08:37:52.888Z,100033.47
2022-12-19T08:41:03.296Z,100025.59
2022-12-19T08:44:10.023Z,100029.69
2022-12-19T08:47:18.419Z,100033.00
2022-12-19T08:50:25.503Z,100015.06
2022-12-19T08:53:37.211Z,100010.75
2022-12-19T08:56:46.013Z,100015.72
2022-12-19T08:59:53.927Z,100030.91
2022-12-19T09:03:05.833Z,100032.44
2022-12-19T09:06:18.954Z,100022.91
2022-12-19T09:09:32.803Z,99998.09
2022-12-19T09:12:38.499Z,99998.75
2022-12-19T09:15:44.981Z,100007.25
2022-12-19T09:18:57.175Z,99990.97
2022-12-19T09:22:03.808Z,99999.31
2022-12-19T09:25:13.774Z,99993.25
2022-12-19T09:28:28.005Z,99998.09
2022-12-19T09:31:33.830Z,99986.03
2022-12-19T09:34:40.480Z,100007.03
2022-12-19T09:37:46.064Z,100004.22
2022-12-19T09:41:43.550Z,99996.25
2022-12-19T09:45:14.615Z,99995.78
2022-12-19T09:48:27.955Z,99971.59
2022-12-19T09:51:43.413Z,99985.56
2022-12-19T09:54:59.651Z,99958.41
2022-12-19T09:58:16.890Z,99968.34
2022-12-19T10:01:33.679Z,99956.31
2022-12-19T10:04:42.010Z,99949.63
2022-12-19T10:08:07.651Z,99937.78
2022-12-19T10:12:38.374Z,99945.28
2022-12-19T10:15:40.495Z,99948.56
2022-12-19T10:18:57.329Z,99938.94
2022-12-19T10:22:20.992Z,99937.19
2022-12-19T10:25:53.802Z,99944.56
2022-12-19T10:29:45.911Z,99935.91
2022-12-19T10:33:20.026Z,99914.56
2022-12-19T10:36:55.861Z,99923.09
2022-12-19T10:40:27.376Z,99917.16
2022-12-19T10:43:55.482Z,99911.88
2022-12-19T10:47:02.048Z,99896.34
2022-12-19T10:50:24.264Z,99890.13
2022-12-19T10:53:33.961Z,99887.00
2022-12-19T10:56:40.724Z,99877.50
2022-12-19T11:00:02.197Z,99881.78
2022-12-19T11:03:18.925Z,99868.31
2022-12-19T11:06:55.671Z,99875.13
2022-12-19T11:10:38.531Z,99862.91
2022-12-19T11:17:32.552Z,99851.63
2022-12-19T11:21:58.858Z,99858.75
2022-12-19T11:29:36.813Z,99854.88
2022-12-19T11:29:43.288Z,99854.50
2022-12-19T11:30:09.086Z,99856.00
2022-12-19T11:34:53.822Z,99845.78
2022-12-19T11:38:04.926Z,99844.44
2022-12-19T11:41:34.019Z,99831.59
2022-12-19T11:44:55.329Z,99819.41
2022-12-19T11:48:15.793Z,99799.41
2022-12-19T11:51:35.056Z,99802.63
2022-12-19T11:54:58.077Z,99807.59
2022-12-19T11:58:12.720Z,99805.78
2022-12-19T12:01:44.874Z,99809.66
2022-12-19T12:05:22.483Z,99790.34
2022-12-19T12:10:12.836Z,99793.53
2022-12-19T12:22:48.211Z,99796.41
2022-12-19T12:30:45.085Z,99779.59
2022-12-19T12:31:10.968Z,99781.66
2022-12-19T12:31:53.909Z,99768.69
2022-12-19T12:31:56.214Z,99778.50
2022-12-19T12:35:45.382Z,99774.22
2022-12-19T12:39:41.338Z,99775.34
2022-12-19T12:43:07.206Z,99769.66
2022-12-19T12:46:22.801Z,99767.94
2022-12-19T12:49:42.079Z,99745.34
2022-12-19T12:52:55.298Z,99758.56
2022-12-19T12:56:07.191Z,99751.81
2022-12-19T12:59:31.423Z,99729.22
2022-12-19T13:02:38.673Z,99737.31
2022-12-19T13:06:09.859Z,99744.13
2022-12-19T13:09:30.734Z,99744.81
2022-12-19T13:13:09.295Z,99744.81
2022-12-19T13:16:53.334Z,99736.50
2022-12-19T13:20:43.463Z,99729.41
2022-12-19T13:24:16.173Z,99710.13
2022-12-19T13:27:43.773Z,99724.78
2022-12-19T13:31:21.312Z,99730.13
2022-12-19T13:34:45.871Z,99739.41
2022-12-19T13:39:54.909Z,99727.81
2022-12-19T13:42:00.717Z,99725.75
2022-12-19T13:45:16.264Z,99709.34
2022-12-19T13:48:34.062Z,99721.66
2022-12-19T13:52:00.354Z,99715.03
2022-12-19T13:55:06.465Z,99717.16
2022-12-19T13:58:39.682Z,99678.44
2022-12-19T14:01:46.417Z,99702.44
2022-12-19T14:04:53.106Z,99710.22
2022-12-19T14:08:00.443Z,99707.88
2022-12-19T14:11:40.839Z,99700.00
2022-12-19T14:15:13.567Z,99702.66
2022-12-19T14:18:44.685Z,99699.44
2022-12-19T14:22:08.918Z,99692.13
2022-12-19T14:28:14.683Z,99681.69
2022-12-19T14:28:55.262Z,99686.72
2022-12-19T14:33:15.473Z,99681.66
2022-12-19T14:36:11.469Z,99670.97
2022-12-19T14:39:29.400Z,99675.19
2022-12-19T14:43:58.007Z,99683.03
2022-12-19T14:52:34.299Z,99667.06
2022-12-19T14:54:13.502Z,99669.13
2022-12-19T14:54:31.519Z,99649.59
2022-12-19T14:57:01.027Z,99660.41
2022-12-19T15:01:08.564Z,99660.84
2022-12-19T15:04:50.655Z,99664.75
2022-12-19T15:07:49.550Z,99659.75
2022-12-19T15:11:44.607Z,99653.47
2022-12-19T15:14:59.739Z,99635.13
2022-12-19T15:18:22.369Z,99639.22
2022-12-19T15:21:29.941Z,99635.69
2022-12-19T15:24:38.243Z,99634.78
2022-12-19T15:27:48.678Z,99638.97
2022-12-19T15:31:02.713Z,99633.81
2022-12-19T15:34:35.841Z,99623.56
2022-12-19T15:37:44.372Z,99627.81
2022-12-19T15:40:53.462Z,99622.81
2022-12-19T15:44:04.914Z,99630.53
2022-12-19T15:47:29.091Z,99608.84
2022-12-19T15:50:35.703Z,99638.44
2022-12-19T15:53:43.122Z,99641.00
2022-12-19T15:56:56.841Z,99622.13
2022-12-19T16:00:09.641Z,99607.31
2022-12-19T16:03:25.430Z,99605.56
2022-12-19T16:06:32.501Z,99596.13
2022-12-19T16:09:38.286Z,99597.78
2022-12-19T16:12:52.848Z,99595.28
2022-12-19T16:16:00.444Z,99587.72
2022-12-19T16:19:06.919Z,99602.34
2022-12-19T16:22:22.549Z,99590.88
2022-12-19T16:25:38.490Z,99572.25
2022-12-19T16:28:46.772Z,99571.41
2022-12-19T16:31:53.402Z,99577.09
2022-12-19T16:34:59.484Z,99581.19
2022-12-19T16:38:05.744Z,99587.72
2022-12-19T16:41:20.327Z,99567.63
2022-12-19T16:44:29.644Z,99576.38
2022-12-19T16:47:38.339Z,99572.81
2022-12-19T16:50:44.905Z,99537.19
2022-12-19T16:53:53.492Z,99564.31
2022-12-19T16:57:00.999Z,99565.56
2022-12-19T17:00:14.669Z,99544.41
2022-12-19T17:03:36.408Z,99532.97
2022-12-19T17:06:42.113Z,99545.13
2022-12-19T17:09:50.625Z,99549.69
2022-12-19T17:12:57.464Z,99543.13
2022-12-19T17:16:08.290Z,99537.41
2022-12-19T17:19:25.296Z,99534.25
2022-12-19T17:22:31.630Z,99542.50
2022-12-19T17:25:37.311Z,99548.22
2022-12-19T17:28:44.178Z,99536.22
2022-12-19T17:31:52.310Z,99541.97
2022-12-19T17:34:58.842Z,99541.63
2022-12-19T17:38:05.386Z,99537.09
2022-12-19T17:41:19.408Z,99540.91
2022-12-19T17:44:25.014Z,99535.41
2022-12-19T17:47:34.013Z,99525.97
2022-12-19T17:50:43.583Z,99535.06
2022-12-19T17:53:51.484Z,99532.34
2022-12-19T17:56:58.131Z,99519.09
2022-12-19T18:00:04.665Z,99524.91
2022-12-19T18:03:28.872Z,99526.22
2022-12-19T18:06:35.122Z,99531.38
2022-12-19T18:09:40.664Z,99530.63
2022-12-19T18:12:49.988Z,99539.88
2022-12-19T18:16:00.160Z,99533.69
2022-12-19T18:19:10.209Z,99529.41
2022-12-19T18:22:17.182Z,99520.91
2022-12-19T18:25:27.403Z,99520.00
2022-12-19T18:28:33.626Z,99513.66
2022-12-19T18:31:46.527Z,99510.72
2022-12-19T18:34:58.723Z,99506.13
2022-12-19T18:38:10.939Z,99501.50
2022-12-19T18:41:17.071Z,99487.53
2022-12-19T18:44:24.788Z,99484.66
2022-12-19T18:47:30.366Z,99470.63
2022-12-19T18:50:39.388Z,99472.28
2022-12-19T18:53:45.791Z,99478.13
2022-12-19T18:56:52.080Z,99471.38
2022-12-19T18:59:59.159Z,99475.94
2022-12-19T19:03:12.814Z,99472.28
2022-12-19T19:06:26.564Z,99476.47
2022-12-19T19:09:33.623Z,99472.59
2022-12-19T19:13:06.615Z,99472.16
2022-12-19T19:16:22.604Z,99458.94
2022-12-19T19:19:28.480Z,99443.03
2022-12-19T19:22:38.065Z,99446.06
2022-12-19T19:25:43.968Z,99458.91
2022-12-19T19:28:53.007Z,99458.72
2022-12-19T19:31:58.744Z,99455.75
2022-12-19T19:35:12.015Z,99456.66
2022-12-19T19:38:26.416Z,99460.75
2022-12-19T19:41:34.483Z,99454.75
2022-12-19T19:44:39.989Z,99460.66
2022-12-19T19:47:46.780Z,99462.63
2022-12-19T19:50:52.273Z,99454.81
2022-12-19T19:54:01.443Z,99456.41
2022-12-19T19:57:11.092Z,99462.50
2022-12-19T20:00:19.752Z,99457.16
2022-12-19T20:03:26.287Z,99458.72
2022-12-19T20:06:33.408Z,99448.50
2022-12-19T20:09:41.862Z,99450.78
2022-12-19T20:12:48.418Z,99449.97
2022-12-19T20:15:55.467Z,99442.88
2022-12-19T20:19:01.953Z,99435.56
2022-12-19T20:22:08.532Z,99435.41
2022-12-19T20:25:18.140Z,99422.78
2022-12-19T20:28:23.758Z,99434.81
2022-12-19T20:31:31.479Z,99434.72
2022-12-19T20:34:37.602Z,99432.44
2022-12-19T20:37:43.849Z,99452.47
2022-12-19T20:40:55.989Z,99449.78
2022-12-19T20:44:02.454Z,99435.13
2022-12-19T20:47:08.288Z,99425.94
2022-12-19T20:50:16.326Z,99425.88
2022-12-19T20:53:21.793Z,99423.44
2022-12-19T20:56:30.711Z,99408.88
2022-12-19T20:59:36.466Z,99412.28
2022-12-19T21:03:24.980Z,99403.84
2022-12-19T21:06:10.912Z,99404.91
2022-12-19T21:09:17.838Z,99403.84
2022-12-19T21:12:25.894Z,99400.44
2022-12-19T21:15:34.387Z,99389.34
2022-12-19T21:18:41.960Z,99396.22
2022-12-19T21:21:48.500Z,99390.09
2022-12-19T21:24:53.967Z,99390.59
2022-12-19T21:28:02.826Z,99386.50
2022-12-19T21:31:15.181Z,99381.50
2022-12-19T21:34:21.780Z,99379.28
2022-12-19T21:37:37.058Z,99372.06
2022-12-19T21:40:46.252Z,99367.78
2022-12-19T21:43:56.892Z,99365.94
2022-12-19T21:47:04.024Z,99371.94
2022-12-19T21:50:14.661Z,99364.13
2022-12-19T21:53:22.675Z,99359.63
2022-12-19T21:56:31.157Z,99353.53
2022-12-19T21:59:40.369Z,99365.28
2022-12-19T22:03:12.719Z,99354.53
2022-12-19T22:06:27.634Z,99369.91
2022-12-19T22:09:34.515Z,99365.47
2022-12-19T22:12:40.812Z,99378.47
2022-12-19T22:15:49.223Z,99371.63
2022-12-19T22:18:56.729Z,99357.81
2022-12-19T22:22:02.429Z,99358.56
2022-12-19T22:25:10.520Z,99350.78
2022-12-19T22:28:16.122Z,99347.72
2022-12-19T22:31:28.198Z,99332.22
2022-12-19T22:34:33.782Z,99340.53
2022-12-19T22:37:40.229Z,99330.38
2022-12-19T22:40:45.758Z,99337.69
2022-12-19T22:43:52.272Z,99334.47
2022-12-19T22:47:04.169Z,99342.13
2022-12-19T22:50:13.319Z,99336.13
2022-12-19T22:53:19.269Z,99331.97
2022-12-19T22:56:29.255Z,99330.81
2022-12-19T22:59:35.108Z,99330.38
2022-12-19T23:02:45.359Z,99327.53
2022-12-19T23:05:52.186Z,99309.59
2022-12-19T23:08:58.956Z,99312.94
2022-12-19T23:12:04.499Z,99313.69
2022-12-19T23:15:11.993Z,99305.94
2022-12-19T23:18:20.791Z,99311.63
2022-12-19T23:21:29.549Z,99297.09
2022-12-19T23:24:35.222Z,99304.50
2022-12-19T23:27:44.151Z,99306.09
2022-12-19T23:30:49.930Z,99296.50
2022-12-19T23:34:03.405Z,99297.25
2022-12-19T23:37:11.267Z,99306.59
2022-12-19T23:40:18.612Z,99311.69
2022-12-19T23:43:24.181Z,99312.50
2022-12-19T23:46:31.262Z,99319.19
2022-12-19T23:49:39.622Z,99317.75
2022-12-19T23:52:47.162Z,99313.59
2022-12-19T23:55:52.996Z,99309.25
2022-12-19T23:59:00.721Z,99310.13
